sensor_id;sensor_type;location;lat;lon;timestamp;temperature;humidity
9209;DHT22;4639;48.862;9.188;2022-09-01T00:01:51;17.50;99.90
9209;DHT22;4639;48.862;9.188;2022-09-01T00:04:20;17.40;99.90
9209;DHT22;4639;48.862;9.188;2022-09-01T00:06:47;17.40;99.90
9209;DHT22;4639;48.862;9.188;2022-09-01T00:09:17;17.40;99.90
9209;DHT22;4639;48.862;9.188;2022-09-01T00:11:48;17.50;99.90
9209;DHT22;4639;48.862;9.188;2022-09-01T00:14:14;17.40;99.90
9209;DHT22;4639;48.862;9.188;2022-09-01T00:16:40;17.40;99.90
9209;DHT22;4639;48.862;9.188;2022-09-01T00:19:06;17.50;99.90
9209;DHT22;4639;48.862;9.188;2022-09-01T00:21:35;17.30;99.90
9209;DHT22;4639;48.862;9.188;2022-09-01T00:24:02;17.20;99.90
9209;DHT22;4639;48.862;9.188;2022-09-01T00:26:28;17.20;99.90
9209;DHT22;4639;48.862;9.188;2022-09-01T00:28:54;17.20;99.90
9209;DHT22;4639;48.862;9.188;2022-09-01T00:31:20;17.10;99.90
9209;DHT22;4639;48.862;9.188;2022-09-01T00:33:47;17.00;99.90
9209;DHT22;4639;48.862;9.188;2022-09-01T00:36:14;17.10;99.90
9209;DHT22;4639;48.862;9.188;2022-09-01T00:38:40;17.10;99.90
9209;DHT22;4639;48.862;9.188;2022-09-01T00:41:06;17.00;99.90
9209;DHT22;4639;48.862;9.188;2022-09-01T00:43:49;17.00;99.90
9209;DHT22;4639;48.862;9.188;2022-09-01T00:46:23;17.20;99.90
9209;DHT22;4639;48.862;9.188;2022-09-01T00:48:59;17.10;99.90
9209;DHT22;4639;48.862;9.188;2022-09-01T00:51:26;17.00;99.90
9209;DHT22;4639;48.862;9.188;2022-09-01T00:53:52;17.20;99.90
9209;DHT22;4639;48.862;9.188;2022-09-01T00:56:20;17.00;99.90
9209;DHT22;4639;48.862;9.188;2022-09-01T00:58:46;16.90;99.90
9209;DHT22;4639;48.862;9.188;2022-09-01T01:01:12;17.00;99.90
9209;DHT22;4639;48.862;9.188;2022-09-01T01:03:38;16.90;99.90
9209;DHT22;4639;48.862;9.188;2022-09-01T01:06:08;16.90;99.90
9209;DHT22;4639;48.862;9.188;2022-09-01T01:08:37;16.90;99.90
9209;DHT22;4639;48.862;9.188;2022-09-01T01:11:07;17.10;99.90
9209;DHT22;4639;48.862;9.188;2022-09-01T01:13:49;16.90;99.90
9209;DHT22;4639;48.862;9.188;2022-09-01T01:16:16;16.80;99.90
9209;DHT22;4639;48.862;9.188;2022-09-01T01:18:42;16.90;99.90
9209;DHT22;4639;48.862;9.188;2022-09-01T01:21:17;16.80;99.90
9209;DHT22;4639;48.862;9.188;2022-09-01T01:26:51;16.80;99.90
9209;DHT22;4639;48.862;9.188;2022-09-01T01:29:18;16.80;99.90
9209;DHT22;4639;48.862;9.188;2022-09-01T01:31:44;17.00;99.90
9209;DHT22;4639;48.862;9.188;2022-09-01T01:34:13;16.80;99.90
9209;DHT22;4639;48.862;9.188;2022-09-01T01:36:39;16.70;99.90
9209;DHT22;4639;48.862;9.188;2022-09-01T01:39:12;16.80;99.90
9209;DHT22;4639;48.862;9.188;2022-09-01T01:41:40;16.80;99.90
9209;DHT22;4639;48.862;9.188;2022-09-01T01:44:08;16.80;99.90
9209;DHT22;4639;48.862;9.188;2022-09-01T01:46:35;16.80;99.90
9209;DHT22;4639;48.862;9.188;2022-09-01T01:49:04;16.80;99.90
9209;DHT22;4639;48.862;9.188;2022-09-01T01:51:30;16.70;99.90
9209;DHT22;4639;48.862;9.188;2022-09-01T01:53:58;16.70;99.90
9209;DHT22;4639;48.862;9.188;2022-09-01T01:56:26;16.70;99.90
9209;DHT22;4639;48.862;9.188;2022-09-01T01:58:53;16.70;99.90
9209;DHT22;4639;48.862;9.188;2022-09-01T02:01:25;16.70;99.90
9209;DHT22;4639;48.862;9.188;2022-09-01T02:03:53;16.70;99.90
9209;DHT22;4639;48.862;9.188;2022-09-01T02:06:21;16.60;99.90
9209;DHT22;4639;48.862;9.188;2022-09-01T02:08:51;16.70;99.90
9209;DHT22;4639;48.862;9.188;2022-09-01T02:11:17;16.70;99.90
9209;DHT22;4639;48.862;9.188;2022-09-01T02:13:43;16.60;99.90
9209;DHT22;4639;48.862;9.188;2022-09-01T02:16:12;16.50;99.90
9209;DHT22;4639;48.862;9.188;2022-09-01T02:18:42;16.50;99.90
9209;DHT22;4639;48.862;9.188;2022-09-01T02:21:10;16.50;99.90
9209;DHT22;4639;48.862;9.188;2022-09-01T02:23:38;16.40;99.90
9209;DHT22;4639;48.862;9.188;2022-09-01T02:26:05;16.40;99.90
9209;DHT22;4639;48.862;9.188;2022-09-01T02:28:35;16.30;99.90
9209;DHT22;4639;48.862;9.188;2022-09-01T02:31:03;16.20;99.90
9209;DHT22;4639;48.862;9.188;2022-09-01T02:33:30;16.20;99.90
9209;DHT22;4639;48.862;9.188;2022-09-01T02:36:02;16.20;99.90
9209;DHT22;4639;48.862;9.188;2022-09-01T02:38:29;16.20;99.90
9209;DHT22;4639;48.862;9.188;2022-09-01T02:41:02;16.10;99.90
9209;DHT22;4639;48.862;9.188;2022-09-01T02:43:28;16.10;99.90
9209;DHT22;4639;48.862;9.188;2022-09-01T02:45:58;16.20;99.90
9209;DHT22;4639;48.862;9.188;2022-09-01T02:48:31;16.20;99.90
9209;DHT22;4639;48.862;9.188;2022-09-01T02:51:01;16.20;99.90
9209;DHT22;4639;48.862;9.188;2022-09-01T02:53:28;16.20;99.90
9209;DHT22;4639;48.862;9.188;2022-09-01T02:55:55;16.30;99.90
9209;DHT22;4639;48.862;9.188;2022-09-01T02:58:24;16.10;99.90
9209;DHT22;4639;48.862;9.188;2022-09-01T03:00:54;16.10;99.90
9209;DHT22;4639;48.862;9.188;2022-09-01T03:03:20;16.10;99.90
9209;DHT22;4639;48.862;9.188;2022-09-01T03:05:47;16.00;99.90
9209;DHT22;4639;48.862;9.188;2022-09-01T03:08:12;16.00;99.90
9209;DHT22;4639;48.862;9.188;2022-09-01T03:10:42;16.00;99.90
9209;DHT22;4639;48.862;9.188;2022-09-01T03:13:10;16.00;99.90
9209;DHT22;4639;48.862;9.188;2022-09-01T03:15:37;15.90;99.90
9209;DHT22;4639;48.862;9.188;2022-09-01T03:18:04;16.00;99.90
9209;DHT22;4639;48.862;9.188;2022-09-01T03:20:32;15.90;99.90
9209;DHT22;4639;48.862;9.188;2022-09-01T03:22:59;16.00;99.90
9209;DHT22;4639;48.862;9.188;2022-09-01T03:25:26;16.00;99.90
9209;DHT22;4639;48.862;9.188;2022-09-01T03:27:54;16.00;99.90
9209;DHT22;4639;48.862;9.188;2022-09-01T03:30:20;15.90;99.90
9209;DHT22;4639;48.862;9.188;2022-09-01T03:32:45;15.90;99.90
9209;DHT22;4639;48.862;9.188;2022-09-01T03:35:12;16.00;99.90
9209;DHT22;4639;48.862;9.188;2022-09-01T03:37:38;15.90;99.90
9209;DHT22;4639;48.862;9.188;2022-09-01T03:40:06;15.80;99.90
9209;DHT22;4639;48.862;9.188;2022-09-01T03:42:34;15.80;99.90
9209;DHT22;4639;48.862;9.188;2022-09-01T03:45:01;15.80;99.90
9209;DHT22;4639;48.862;9.188;2022-09-01T03:47:36;15.70;99.90
9209;DHT22;4639;48.862;9.188;2022-09-01T03:50:07;15.70;99.90
9209;DHT22;4639;48.862;9.188;2022-09-01T03:52:51;15.70;99.90
9209;DHT22;4639;48.862;9.188;2022-09-01T03:55:20;15.70;99.90
9209;DHT22;4639;48.862;9.188;2022-09-01T03:57:53;15.70;99.90
9209;DHT22;4639;48.862;9.188;2022-09-01T04:00:21;15.60;99.90
9209;DHT22;4639;48.862;9.188;2022-09-01T04:02:52;15.60;99.90
9209;DHT22;4639;48.862;9.188;2022-09-01T04:05:21;15.60;99.90
9209;DHT22;4639;48.862;9.188;2022-09-01T04:07:50;15.60;99.90
9209;DHT22;4639;48.862;9.188;2022-09-01T04:10:17;15.60;99.90
9209;DHT22;4639;48.862;9.188;2022-09-01T04:12:43;15.70;99.90
9209;DHT22;4639;48.862;9.188;2022-09-01T04:15:11;15.60;99.90
9209;DHT22;4639;48.862;9.188;2022-09-01T04:17:37;15.60;99.90
9209;DHT22;4639;48.862;9.188;2022-09-01T04:20:21;15.60;99.90
9209;DHT22;4639;48.862;9.188;2022-09-01T04:22:49;15.60;99.90
9209;DHT22;4639;48.862;9.188;2022-09-01T04:25:16;15.60;99.90
9209;DHT22;4639;48.862;9.188;2022-09-01T04:27:41;15.60;99.90
9209;DHT22;4639;48.862;9.188;2022-09-01T04:30:10;15.50;99.90
9209;DHT22;4639;48.862;9.188;2022-09-01T04:32:36;15.50;99.90
9209;DHT22;4639;48.862;9.188;2022-09-01T04:35:03;15.50;99.90
9209;DHT22;4639;48.862;9.188;2022-09-01T04:37:29;15.50;99.90
9209;DHT22;4639;48.862;9.188;2022-09-01T04:39:56;15.60;99.90
9209;DHT22;4639;48.862;9.188;2022-09-01T04:42:23;15.70;99.90
9209;DHT22;4639;48.862;9.188;2022-09-01T04:44:50;15.50;99.90
9209;DHT22;4639;48.862;9.188;2022-09-01T04:47:17;15.50;99.90
9209;DHT22;4639;48.862;9.188;2022-09-01T04:49:45;15.50;99.90
9209;DHT22;4639;48.862;9.188;2022-09-01T04:52:12;15.50;99.90
9209;DHT22;4639;48.862;9.188;2022-09-01T04:54:39;15.50;99.90
9209;DHT22;4639;48.862;9.188;2022-09-01T04:57:05;15.40;99.90
9209;DHT22;4639;48.862;9.188;2022-09-01T04:59:32;15.40;99.90
9209;DHT22;4639;48.862;9.188;2022-09-01T05:01:58;15.60;99.90
9209;DHT22;4639;48.862;9.188;2022-09-01T05:04:27;15.40;99.90
9209;DHT22;4639;48.862;9.188;2022-09-01T05:06:57;15.40;99.90
9209;DHT22;4639;48.862;9.188;2022-09-01T05:09:31;15.40;99.90
9209;DHT22;4639;48.862;9.188;2022-09-01T05:11:57;15.30;99.90
9209;DHT22;4639;48.862;9.188;2022-09-01T05:14:45;15.30;99.90
9209;DHT22;4639;48.862;9.188;2022-09-01T05:17:13;15.30;99.90
9209;DHT22;4639;48.862;9.188;2022-09-01T05:19:40;15.40;99.90
9209;DHT22;4639;48.862;9.188;2022-09-01T05:22:08;15.30;99.90
9209;DHT22;4639;48.862;9.188;2022-09-01T05:24:34;15.30;99.90
9209;DHT22;4639;48.862;9.188;2022-09-01T05:27:00;15.60;99.90
9209;DHT22;4639;48.862;9.188;2022-09-01T05:29:27;15.30;99.90
9209;DHT22;4639;48.862;9.188;2022-09-01T05:31:54;15.40;99.90
9209;DHT22;4639;48.862;9.188;2022-09-01T05:34:21;15.40;99.90
9209;DHT22;4639;48.862;9.188;2022-09-01T05:36:52;15.50;99.90
9209;DHT22;4639;48.862;9.188;2022-09-01T05:39:19;15.50;99.90
9209;DHT22;4639;48.862;9.188;2022-09-01T05:41:45;15.40;99.90
9209;DHT22;4639;48.862;9.188;2022-09-01T05:44:13;15.40;99.90
9209;DHT22;4639;48.862;9.188;2022-09-01T05:46:40;15.40;99.90
9209;DHT22;4639;48.862;9.188;2022-09-01T05:49:09;15.40;99.90
9209;DHT22;4639;48.862;9.188;2022-09-01T05:51:40;15.40;99.90
9209;DHT22;4639;48.862;9.188;2022-09-01T05:54:07;15.50;99.90
9209;DHT22;4639;48.862;9.188;2022-09-01T05:56:36;15.60;99.90
9209;DHT22;4639;48.862;9.188;2022-09-01T05:59:06;15.60;99.90
9209;DHT22;4639;48.862;9.188;2022-09-01T06:01:31;15.70;99.90
9209;DHT22;4639;48.862;9.188;2022-09-01T06:03:59;15.80;99.90
9209;DHT22;4639;48.862;9.188;2022-09-01T06:06:32;16.00;99.90
9209;DHT22;4639;48.862;9.188;2022-09-01T06:09:01;15.90;99.90
9209;DHT22;4639;48.862;9.188;2022-09-01T06:11:26;16.00;99.90
9209;DHT22;4639;48.862;9.188;2022-09-01T06:13:53;16.00;99.90
9209;DHT22;4639;48.862;9.188;2022-09-01T06:16:20;16.00;99.90
9209;DHT22;4639;48.862;9.188;2022-09-01T06:18:47;16.10;99.90
9209;DHT22;4639;48.862;9.188;2022-09-01T06:21:12;16.00;99.90
9209;DHT22;4639;48.862;9.188;2022-09-01T06:23:43;16.10;99.90
9209;DHT22;4639;48.862;9.188;2022-09-01T06:26:30;16.10;99.90
9209;DHT22;4639;48.862;9.188;2022-09-01T06:28:58;16.10;99.90
9209;DHT22;4639;48.862;9.188;2022-09-01T06:31:28;16.10;99.90
9209;DHT22;4639;48.862;9.188;2022-09-01T06:33:59;16.20;99.90
9209;DHT22;4639;48.862;9.188;2022-09-01T06:36:25;16.30;99.90
9209;DHT22;4639;48.862;9.188;2022-09-01T06:38:52;16.40;99.90
9209;DHT22;4639;48.862;9.188;2022-09-01T06:41:20;16.50;99.90
9209;DHT22;4639;48.862;9.188;2022-09-01T06:43:48;16.50;99.90
9209;DHT22;4639;48.862;9.188;2022-09-01T06:46:18;16.50;99.90
9209;DHT22;4639;48.862;9.188;2022-09-01T06:48:45;16.60;99.90
9209;DHT22;4639;48.862;9.188;2022-09-01T06:51:13;16.60;99.90
9209;DHT22;4639;48.862;9.188;2022-09-01T06:53:40;16.70;99.90
9209;DHT22;4639;48.862;9.188;2022-09-01T06:56:07;16.80;99.90
9209;DHT22;4639;48.862;9.188;2022-09-01T06:58:35;16.90;99.90
9209;DHT22;4639;48.862;9.188;2022-09-01T07:01:07;17.00;99.90
9209;DHT22;4639;48.862;9.188;2022-09-01T07:03:36;17.00;99.90
9209;DHT22;4639;48.862;9.188;2022-09-01T07:06:05;17.10;99.90
9209;DHT22;4639;48.862;9.188;2022-09-01T07:08:31;17.10;99.90
9209;DHT22;4639;48.862;9.188;2022-09-01T07:11:07;17.20;99.90
9209;DHT22;4639;48.862;9.188;2022-09-01T07:13:33;17.30;99.90
9209;DHT22;4639;48.862;9.188;2022-09-01T07:16:00;17.40;99.90
9209;DHT22;4639;48.862;9.188;2022-09-01T07:18:29;17.50;99.90
9209;DHT22;4639;48.862;9.188;2022-09-01T07:20:56;17.70;99.90
9209;DHT22;4639;48.862;9.188;2022-09-01T07:23:22;17.80;99.90
9209;DHT22;4639;48.862;9.188;2022-09-01T07:25:50;18.00;99.90
9209;DHT22;4639;48.862;9.188;2022-09-01T07:28:21;18.10;99.90
9209;DHT22;4639;48.862;9.188;2022-09-01T07:30:50;18.10;99.90
9209;DHT22;4639;48.862;9.188;2022-09-01T07:33:18;18.30;99.90
9209;DHT22;4639;48.862;9.188;2022-09-01T07:35:49;18.50;99.90
9209;DHT22;4639;48.862;9.188;2022-09-01T07:38:18;18.80;99.90
9209;DHT22;4639;48.862;9.188;2022-09-01T07:40:45;19.10;99.90
9209;DHT22;4639;48.862;9.188;2022-09-01T07:43:27;19.20;99.90
9209;DHT22;4639;48.862;9.188;2022-09-01T07:45:55;19.40;99.90
9209;DHT22;4639;48.862;9.188;2022-09-01T07:48:25;19.60;99.90
9209;DHT22;4639;48.862;9.188;2022-09-01T07:50:53;20.00;99.90
9209;DHT22;4639;48.862;9.188;2022-09-01T07:53:25;20.20;99.90
9209;DHT22;4639;48.862;9.188;2022-09-01T07:55:54;20.40;99.90
9209;DHT22;4639;48.862;9.188;2022-09-01T07:58:23;20.50;99.90
9209;DHT22;4639;48.862;9.188;2022-09-01T08:00:50;20.50;99.90
9209;DHT22;4639;48.862;9.188;2022-09-01T08:03:18;20.50;99.90
9209;DHT22;4639;48.862;9.188;2022-09-01T08:05:44;20.70;99.90
9209;DHT22;4639;48.862;9.188;2022-09-01T08:08:12;20.80;99.90
9209;DHT22;4639;48.862;9.188;2022-09-01T08:10:39;20.90;99.90
9209;DHT22;4639;48.862;9.188;2022-09-01T08:13:06;20.80;99.90
9209;DHT22;4639;48.862;9.188;2022-09-01T08:15:32;20.70;99.90
9209;DHT22;4639;48.862;9.188;2022-09-01T08:17:58;20.70;99.90
9209;DHT22;4639;48.862;9.188;2022-09-01T08:20:24;20.60;99.90
9209;DHT22;4639;48.862;9.188;2022-09-01T08:22:49;20.50;99.90
9209;DHT22;4639;48.862;9.188;2022-09-01T08:25:15;20.50;99.90
9209;DHT22;4639;48.862;9.188;2022-09-01T08:27:41;20.60;99.90
9209;DHT22;4639;48.862;9.188;2022-09-01T08:30:09;20.50;99.90
9209;DHT22;4639;48.862;9.188;2022-09-01T08:32:37;20.40;99.90
9209;DHT22;4639;48.862;9.188;2022-09-01T08:35:08;20.30;99.90
9209;DHT22;4639;48.862;9.188;2022-09-01T08:37:33;20.30;99.90
9209;DHT22;4639;48.862;9.188;2022-09-01T08:39:59;20.30;99.90
9209;DHT22;4639;48.862;9.188;2022-09-01T08:45:07;20.30;99.90
9209;DHT22;4639;48.862;9.188;2022-09-01T08:47:36;20.40;99.90
9209;DHT22;4639;48.862;9.188;2022-09-01T08:50:03;20.60;99.90
9209;DHT22;4639;48.862;9.188;2022-09-01T08:52:34;20.70;99.90
9209;DHT22;4639;48.862;9.188;2022-09-01T08:57:39;20.70;99.90
9209;DHT22;4639;48.862;9.188;2022-09-01T09:00:10;20.70;99.90
9209;DHT22;4639;48.862;9.188;2022-09-01T09:03:18;20.70;99.90
9209;DHT22;4639;48.862;9.188;2022-09-01T09:08:55;21.00;99.90
9209;DHT22;4639;48.862;9.188;2022-09-01T09:17:07;21.00;99.90
9209;DHT22;4639;48.862;9.188;2022-09-01T09:19:40;21.00;99.90
9209;DHT22;4639;48.862;9.188;2022-09-01T09:22:16;21.00;99.90
9209;DHT22;4639;48.862;9.188;2022-09-01T09:25:02;21.00;99.90
9209;DHT22;4639;48.862;9.188;2022-09-01T09:27:37;21.10;99.90
9209;DHT22;4639;48.862;9.188;2022-09-01T09:30:10;21.20;99.90
9209;DHT22;4639;48.862;9.188;2022-09-01T09:41:16;20.70;99.90
9209;DHT22;4639;48.862;9.188;2022-09-01T09:46:39;20.70;99.90
9209;DHT22;4639;48.862;9.188;2022-09-01T09:49:28;20.80;99.90
9209;DHT22;4639;48.862;9.188;2022-09-01T09:52:11;20.90;99.90
9209;DHT22;4639;48.862;9.188;2022-09-01T09:54:58;21.20;99.90
9209;DHT22;4639;48.862;9.188;2022-09-01T09:57:24;21.00;99.90
9209;DHT22;4639;48.862;9.188;2022-09-01T10:00:09;21.10;99.90
9209;DHT22;4639;48.862;9.188;2022-09-01T10:02:44;21.00;99.90
9209;DHT22;4639;48.862;9.188;2022-09-01T10:05:37;20.90;99.90
9209;DHT22;4639;48.862;9.188;2022-09-01T10:08:45;20.90;99.90
9209;DHT22;4639;48.862;9.188;2022-09-01T10:10:54;21.10;99.90
9209;DHT22;4639;48.862;9.188;2022-09-01T10:13:22;21.30;99.90
9209;DHT22;4639;48.862;9.188;2022-09-01T10:15:55;21.50;99.90
9209;DHT22;4639;48.862;9.188;2022-09-01T10:18:29;21.70;99.90
9209;DHT22;4639;48.862;9.188;2022-09-01T10:21:02;21.80;99.90
9209;DHT22;4639;48.862;9.188;2022-09-01T10:23:30;21.90;99.90
9209;DHT22;4639;48.862;9.188;2022-09-01T10:26:06;22.00;99.90
9209;DHT22;4639;48.862;9.188;2022-09-01T10:28:47;22.10;99.90
9209;DHT22;4639;48.862;9.188;2022-09-01T10:31:16;22.20;99.90
9209;DHT22;4639;48.862;9.188;2022-09-01T10:33:42;22.10;99.90
9209;DHT22;4639;48.862;9.188;2022-09-01T10:36:08;22.20;99.90
9209;DHT22;4639;48.862;9.188;2022-09-01T10:38:34;22.20;99.90
9209;DHT22;4639;48.862;9.188;2022-09-01T10:40:59;22.20;99.90
9209;DHT22;4639;48.862;9.188;2022-09-01T10:43:39;22.20;99.90
9209;DHT22;4639;48.862;9.188;2022-09-01T10:48:48;22.50;99.90
9209;DHT22;4639;48.862;9.188;2022-09-01T10:53:47;22.60;99.90
9209;DHT22;4639;48.862;9.188;2022-09-01T10:56:43;22.70;99.90
9209;DHT22;4639;48.862;9.188;2022-09-01T10:59:26;22.70;99.90
9209;DHT22;4639;48.862;9.188;2022-09-01T11:14:59;23.90;99.90
9209;DHT22;4639;48.862;9.188;2022-09-01T11:17:55;24.60;99.90
9209;DHT22;4639;48.862;9.188;2022-09-01T11:20:34;24.90;99.90
9209;DHT22;4639;48.862;9.188;2022-09-01T11:23:04;24.70;99.90
9209;DHT22;4639;48.862;9.188;2022-09-01T11:25:34;24.50;99.90
9209;DHT22;4639;48.862;9.188;2022-09-01T11:28:46;24.30;99.90
9209;DHT22;4639;48.862;9.188;2022-09-01T11:36:14;23.70;99.90
9209;DHT22;4639;48.862;9.188;2022-09-01T11:38:50;23.80;99.90
9209;DHT22;4639;48.862;9.188;2022-09-01T11:44:26;24.90;99.90
9209;DHT22;4639;48.862;9.188;2022-09-01T11:46:58;25.50;99.90
9209;DHT22;4639;48.862;9.188;2022-09-01T11:49:31;26.00;99.90
9209;DHT22;4639;48.862;9.188;2022-09-01T11:51:58;26.20;99.90
9209;DHT22;4639;48.862;9.188;2022-09-01T11:54:26;26.10;99.90
9209;DHT22;4639;48.862;9.188;2022-09-01T11:56:52;25.80;99.90
9209;DHT22;4639;48.862;9.188;2022-09-01T11:59:32;25.60;99.90
9209;DHT22;4639;48.862;9.188;2022-09-01T12:01:59;25.30;99.90
9209;DHT22;4639;48.862;9.188;2022-09-01T12:04:33;25.00;99.90
9209;DHT22;4639;48.862;9.188;2022-09-01T12:07:10;24.80;99.90
9209;DHT22;4639;48.862;9.188;2022-09-01T12:09:45;24.60;99.90
9209;DHT22;4639;48.862;9.188;2022-09-01T12:12:35;24.90;99.90
9209;DHT22;4639;48.862;9.188;2022-09-01T12:15:07;25.60;99.90
9209;DHT22;4639;48.862;9.188;2022-09-01T12:17:34;25.90;99.90
9209;DHT22;4639;48.862;9.188;2022-09-01T12:20:28;26.40;99.90
9209;DHT22;4639;48.862;9.188;2022-09-01T12:22:57;26.80;99.90
9209;DHT22;4639;48.862;9.188;2022-09-01T12:25:32;26.80;99.90
9209;DHT22;4639;48.862;9.188;2022-09-01T12:28:03;26.90;99.90
9209;DHT22;4639;48.862;9.188;2022-09-01T12:30:34;26.90;99.90
9209;DHT22;4639;48.862;9.188;2022-09-01T12:33:06;26.80;99.90
9209;DHT22;4639;48.862;9.188;2022-09-01T12:35:32;26.50;99.90
9209;DHT22;4639;48.862;9.188;2022-09-01T12:40:55;25.90;99.90
9209;DHT22;4639;48.862;9.188;2022-09-01T12:43:37;25.70;99.90
9209;DHT22;4639;48.862;9.188;2022-09-01T12:46:05;25.50;99.90
9209;DHT22;4639;48.862;9.188;2022-09-01T12:48:36;25.30;99.90
9209;DHT22;4639;48.862;9.188;2022-09-01T12:51:24;25.10;99.90
9209;DHT22;4639;48.862;9.188;2022-09-01T12:53:59;24.80;99.90
9209;DHT22;4639;48.862;9.188;2022-09-01T12:56:31;24.60;99.90
9209;DHT22;4639;48.862;9.188;2022-09-01T12:59:21;24.40;99.90
9209;DHT22;4639;48.862;9.188;2022-09-01T13:01:47;24.40;99.90
9209;DHT22;4639;48.862;9.188;2022-09-01T13:04:21;24.40;99.90
9209;DHT22;4639;48.862;9.188;2022-09-01T13:06:52;24.40;99.90
9209;DHT22;4639;48.862;9.188;2022-09-01T13:09:18;24.40;99.90
9209;DHT22;4639;48.862;9.188;2022-09-01T13:11:44;24.20;99.90
9209;DHT22;4639;48.862;9.188;2022-09-01T13:14:12;24.10;99.90
9209;DHT22;4639;48.862;9.188;2022-09-01T13:16:38;23.90;99.90
9209;DHT22;4639;48.862;9.188;2022-09-01T13:19:04;23.90;99.90
9209;DHT22;4639;48.862;9.188;2022-09-01T13:21:32;23.80;99.90
9209;DHT22;4639;48.862;9.188;2022-09-01T13:23:59;23.80;99.90
9209;DHT22;4639;48.862;9.188;2022-09-01T13:26:25;23.80;99.90
9209;DHT22;4639;48.862;9.188;2022-09-01T13:28:51;23.70;99.90
9209;DHT22;4639;48.862;9.188;2022-09-01T13:31:18;23.90;99.90
9209;DHT22;4639;48.862;9.188;2022-09-01T13:33:43;24.10;99.90
9209;DHT22;4639;48.862;9.188;2022-09-01T13:36:09;24.30;99.90
9209;DHT22;4639;48.862;9.188;2022-09-01T13:38:35;24.30;99.90
9209;DHT22;4639;48.862;9.188;2022-09-01T13:41:00;24.30;99.90
9209;DHT22;4639;48.862;9.188;2022-09-01T13:43:27;24.20;99.90
9209;DHT22;4639;48.862;9.188;2022-09-01T13:45:53;24.10;99.90
9209;DHT22;4639;48.862;9.188;2022-09-01T13:48:20;24.00;99.90
9209;DHT22;4639;48.862;9.188;2022-09-01T13:50:48;23.90;99.90
9209;DHT22;4639;48.862;9.188;2022-09-01T13:53:14;24.00;99.90
9209;DHT22;4639;48.862;9.188;2022-09-01T13:55:41;24.00;99.90
9209;DHT22;4639;48.862;9.188;2022-09-01T13:58:07;24.10;99.90
9209;DHT22;4639;48.862;9.188;2022-09-01T14:00:36;24.20;99.90
9209;DHT22;4639;48.862;9.188;2022-09-01T14:03:08;24.70;99.90
9209;DHT22;4639;48.862;9.188;2022-09-01T14:05:37;25.20;99.90
9209;DHT22;4639;48.862;9.188;2022-09-01T14:08:04;25.40;99.90
9209;DHT22;4639;48.862;9.188;2022-09-01T14:10:30;25.50;99.90
9209;DHT22;4639;48.862;9.188;2022-09-01T14:12:57;25.80;99.90
9209;DHT22;4639;48.862;9.188;2022-09-01T14:15:23;25.80;99.90
9209;DHT22;4639;48.862;9.188;2022-09-01T14:17:50;25.80;99.90
9209;DHT22;4639;48.862;9.188;2022-09-01T14:20:22;25.90;99.90
9209;DHT22;4639;48.862;9.188;2022-09-01T14:22:49;26.30;99.90
9209;DHT22;4639;48.862;9.188;2022-09-01T14:25:16;26.50;99.90
9209;DHT22;4639;48.862;9.188;2022-09-01T14:27:42;26.80;99.90
9209;DHT22;4639;48.862;9.188;2022-09-01T14:30:16;27.10;99.90
9209;DHT22;4639;48.862;9.188;2022-09-01T14:32:42;27.50;99.90
9209;DHT22;4639;48.862;9.188;2022-09-01T14:35:09;27.90;99.90
9209;DHT22;4639;48.862;9.188;2022-09-01T14:37:37;27.70;99.90
9209;DHT22;4639;48.862;9.188;2022-09-01T14:40:05;27.60;99.90
9209;DHT22;4639;48.862;9.188;2022-09-01T14:42:31;27.40;99.90
9209;DHT22;4639;48.862;9.188;2022-09-01T14:44:57;27.60;99.90
9209;DHT22;4639;48.862;9.188;2022-09-01T14:47:24;27.90;99.90
9209;DHT22;4639;48.862;9.188;2022-09-01T14:49:53;27.90;99.90
9209;DHT22;4639;48.862;9.188;2022-09-01T14:52:19;27.60;99.90
9209;DHT22;4639;48.862;9.188;2022-09-01T14:54:46;27.20;99.90
9209;DHT22;4639;48.862;9.188;2022-09-01T14:57:12;26.90;99.90
9209;DHT22;4639;48.862;9.188;2022-09-01T14:59:39;26.70;99.90
9209;DHT22;4639;48.862;9.188;2022-09-01T15:02:07;26.90;99.90
9209;DHT22;4639;48.862;9.188;2022-09-01T15:04:33;27.20;99.90
9209;DHT22;4639;48.862;9.188;2022-09-01T15:06:58;27.40;99.90
9209;DHT22;4639;48.862;9.188;2022-09-01T15:09:24;27.30;99.90
9209;DHT22;4639;48.862;9.188;2022-09-01T15:11:50;27.10;99.90
9209;DHT22;4639;48.862;9.188;2022-09-01T15:14:16;27.00;99.90
9209;DHT22;4639;48.862;9.188;2022-09-01T15:16:41;27.10;99.90
9209;DHT22;4639;48.862;9.188;2022-09-01T15:19:09;27.30;99.90
9209;DHT22;4639;48.862;9.188;2022-09-01T15:21:36;27.30;99.90
9209;DHT22;4639;48.862;9.188;2022-09-01T15:24:05;27.20;99.90
9209;DHT22;4639;48.862;9.188;2022-09-01T15:26:30;27.00;99.90
9209;DHT22;4639;48.862;9.188;2022-09-01T15:28:56;26.90;99.90
9209;DHT22;4639;48.862;9.188;2022-09-01T15:31:23;26.90;99.90
9209;DHT22;4639;48.862;9.188;2022-09-01T15:33:56;27.00;99.90
9209;DHT22;4639;48.862;9.188;2022-09-01T15:36:27;26.90;99.90
9209;DHT22;4639;48.862;9.188;2022-09-01T15:38:54;26.60;99.90
9209;DHT22;4639;48.862;9.188;2022-09-01T15:41:25;26.40;99.90
9209;DHT22;4639;48.862;9.188;2022-09-01T15:43:51;26.50;99.90
9209;DHT22;4639;48.862;9.188;2022-09-01T15:46:18;26.80;99.90
9209;DHT22;4639;48.862;9.188;2022-09-01T15:48:44;27.00;99.90
9209;DHT22;4639;48.862;9.188;2022-09-01T15:53:53;27.70;99.90
9209;DHT22;4639;48.862;9.188;2022-09-01T15:56:20;27.70;99.90
9209;DHT22;4639;48.862;9.188;2022-09-01T15:58:46;27.40;99.90
9209;DHT22;4639;48.862;9.188;2022-09-01T16:01:12;27.10;99.90
9209;DHT22;4639;48.862;9.188;2022-09-01T16:03:38;26.90;99.90
9209;DHT22;4639;48.862;9.188;2022-09-01T16:06:04;27.00;99.90
9209;DHT22;4639;48.862;9.188;2022-09-01T16:08:31;27.30;99.90
9209;DHT22;4639;48.862;9.188;2022-09-01T16:10:57;27.60;99.90
9209;DHT22;4639;48.862;9.188;2022-09-01T16:13:23;27.90;99.90
9209;DHT22;4639;48.862;9.188;2022-09-01T16:16:07;27.70;99.90
9209;DHT22;4639;48.862;9.188;2022-09-01T16:18:39;27.60;99.90
9209;DHT22;4639;48.862;9.188;2022-09-01T16:21:39;27.40;99.90
9209;DHT22;4639;48.862;9.188;2022-09-01T16:24:09;27.40;99.90
9209;DHT22;4639;48.862;9.188;2022-09-01T16:26:36;27.40;99.90
9209;DHT22;4639;48.862;9.188;2022-09-01T16:31:54;27.40;99.90
9209;DHT22;4639;48.862;9.188;2022-09-01T16:34:20;27.00;99.90
9209;DHT22;4639;48.862;9.188;2022-09-01T16:37:00;26.80;99.90
9209;DHT22;4639;48.862;9.188;2022-09-01T16:39:42;26.50;99.90
9209;DHT22;4639;48.862;9.188;2022-09-01T16:44:55;26.10;99.90
9209;DHT22;4639;48.862;9.188;2022-09-01T16:50:12;25.60;99.90
9209;DHT22;4639;48.862;9.188;2022-09-01T17:04:14;25.60;99.90
9209;DHT22;4639;48.862;9.188;2022-09-01T17:06:56;25.60;99.90
9209;DHT22;4639;48.862;9.188;2022-09-01T17:09:52;25.70;99.90
9209;DHT22;4639;48.862;9.188;2022-09-01T17:12:20;25.50;99.90
9209;DHT22;4639;48.862;9.188;2022-09-01T17:15:00;25.30;99.90
9209;DHT22;4639;48.862;9.188;2022-09-01T17:17:32;25.20;99.90
9209;DHT22;4639;48.862;9.188;2022-09-01T17:20:00;25.00;99.90
9209;DHT22;4639;48.862;9.188;2022-09-01T17:22:27;24.80;99.90
9209;DHT22;4639;48.862;9.188;2022-09-01T17:25:00;24.60;99.90
9209;DHT22;4639;48.862;9.188;2022-09-01T17:27:49;24.50;99.90
9209;DHT22;4639;48.862;9.188;2022-09-01T17:30:17;24.30;99.90
9209;DHT22;4639;48.862;9.188;2022-09-01T17:35:33;24.10;99.90
9209;DHT22;4639;48.862;9.188;2022-09-01T17:38:12;24.00;99.90
9209;DHT22;4639;48.862;9.188;2022-09-01T17:43:56;23.80;99.90
9209;DHT22;4639;48.862;9.188;2022-09-01T17:46:41;23.70;99.90